sensor_id;sensor_type;location;lat;lon;timestamp;pressure;altitude;pressure_sealevel;temperature;humidity
73267;BME280;61495;53.400;7.608;2022-08-19T00:00:10;101384.72;;;14.60;75.29
73267;BME280;61495;53.400;7.608;2022-08-19T00:02:36;101320.53;;;14.19;75.65
73267;BME280;61495;53.400;7.608;2022-08-19T00:05:03;101379.97;;;14.56;75.57
73267;BME280;61495;53.400;7.608;2022-08-19T00:07:28;101346.13;;;14.28;75.57
73267;BME280;61495;53.400;7.608;2022-08-19T00:09:54;101340.53;;;14.30;76.17
73267;BME280;61495;53.400;7.608;2022-08-19T00:12:19;101309.16;;;14.11;76.82
73267;BME280;61495;53.400;7.608;2022-08-19T00:14:45;101343.25;;;14.30;76.78
73267;BME280;61495;53.400;7.608;2022-08-19T00:17:13;101328.53;;;14.26;76.86
73267;BME280;61495;53.400;7.608;2022-08-19T00:19:39;101291.25;;;13.98;77.03
73267;BME280;61495;53.400;7.608;2022-08-19T00:22:07;101372.22;;;14.41;77.17
73267;BME280;61495;53.400;7.608;2022-08-19T00:24:35;101353.84;;;14.25;76.56
73267;BME280;61495;53.400;7.608;2022-08-19T00:27:04;101364.22;;;14.28;76.43
73267;BME280;61495;53.400;7.608;2022-08-19T00:29:29;101325.31;;;14.11;75.77
73267;BME280;61495;53.400;7.608;2022-08-19T00:31:56;101367.69;;;14.28;76.04
73267;BME280;61495;53.400;7.608;2022-08-19T00:34:24;101356.72;;;14.30;76.21
73267;BME280;61495;53.400;7.608;2022-08-19T00:36:54;101374.16;;;14.34;76.69
73267;BME280;61495;53.400;7.608;2022-08-19T00:39:23;101358.41;;;14.24;76.32
73267;BME280;61495;53.400;7.608;2022-08-19T00:41:54;101298.13;;;13.87;76.68
73267;BME280;61495;53.400;7.608;2022-08-19T00:44:27;101285.38;;;13.76;76.38
73267;BME280;61495;53.400;7.608;2022-08-19T00:46:58;101377.88;;;14.33;76.46
73267;BME280;61495;53.400;7.608;2022-08-19T00:49:36;101351.84;;;14.14;75.69
73267;BME280;61495;53.400;7.608;2022-08-19T00:52:12;101284.19;;;13.66;75.57
73267;BME280;61495;53.400;7.608;2022-08-19T00:54:39;101281.31;;;13.61;75.34
73267;BME280;61495;53.400;7.608;2022-08-19T00:57:15;101315.59;;;13.78;75.66
73267;BME280;61495;53.400;7.608;2022-08-19T00:59:44;101303.22;;;13.71;76.47
73267;BME280;61495;53.400;7.608;2022-08-19T01:02:11;101331.56;;;13.73;76.09
73267;BME280;61495;53.400;7.608;2022-08-19T01:04:37;101274.38;;;13.40;75.76
73267;BME280;61495;53.400;7.608;2022-08-19T01:07:03;101352.44;;;13.84;76.13
73267;BME280;61495;53.400;7.608;2022-08-19T01:09:30;101336.97;;;13.73;75.86
73267;BME280;61495;53.400;7.608;2022-08-19T01:11:56;101332.00;;;13.70;76.06
73267;BME280;61495;53.400;7.608;2022-08-19T01:14:22;101322.09;;;13.64;76.20
73267;BME280;61495;53.400;7.608;2022-08-19T01:16:48;101309.13;;;13.48;76.30
73267;BME280;61495;53.400;7.608;2022-08-19T01:19:28;101307.91;;;13.44;77.05
73267;BME280;61495;53.400;7.608;2022-08-19T01:24:42;101323.66;;;13.41;76.78
73267;BME280;61495;53.400;7.608;2022-08-19T01:27:08;101326.50;;;13.52;76.46
73267;BME280;61495;53.400;7.608;2022-08-19T01:29:39;101324.25;;;13.49;77.57
73267;BME280;61495;53.400;7.608;2022-08-19T01:32:05;101274.50;;;13.14;77.18
73267;BME280;61495;53.400;7.608;2022-08-19T01:34:31;101320.13;;;13.40;77.22
73267;BME280;61495;53.400;7.608;2022-08-19T01:36:59;101237.69;;;12.95;76.81
73267;BME280;61495;53.400;7.608;2022-08-19T01:39:30;101320.13;;;13.40;77.59
73267;BME280;61495;53.400;7.608;2022-08-19T01:41:55;101261.03;;;13.01;76.64
73267;BME280;61495;53.400;7.608;2022-08-19T01:44:21;101296.41;;;13.24;77.34
73267;BME280;61495;53.400;7.608;2022-08-19T01:46:50;101316.03;;;13.31;77.07
73267;BME280;61495;53.400;7.608;2022-08-19T01:49:18;101258.19;;;12.96;76.76
73267;BME280;61495;53.400;7.608;2022-08-19T01:51:44;101306.31;;;13.30;76.06
73267;BME280;61495;53.400;7.608;2022-08-19T01:54:11;101326.78;;;13.31;76.78
73267;BME280;61495;53.400;7.608;2022-08-19T01:56:38;101258.41;;;12.88;76.85
73267;BME280;61495;53.400;7.608;2022-08-19T01:59:08;101290.63;;;13.01;77.25
73267;BME280;61495;53.400;7.608;2022-08-19T02:01:35;101304.31;;;12.99;76.65
73267;BME280;61495;53.400;7.608;2022-08-19T02:04:03;101280.78;;;12.81;76.23
73267;BME280;61495;53.400;7.608;2022-08-19T02:06:30;101292.78;;;12.79;76.48
73267;BME280;61495;53.400;7.608;2022-08-19T02:09:03;101301.44;;;12.88;76.62
73267;BME280;61495;53.400;7.608;2022-08-19T02:11:34;101318.19;;;12.90;77.44
73267;BME280;61495;53.400;7.608;2022-08-19T02:14:08;101263.03;;;12.54;77.63
73267;BME280;61495;53.400;7.608;2022-08-19T02:16:37;101372.19;;;13.21;77.37
73267;BME280;61495;53.400;7.608;2022-08-19T02:19:03;101343.22;;;12.97;77.06
73267;BME280;61495;53.400;7.608;2022-08-19T02:21:29;101343.22;;;12.97;77.42
73267;BME280;61495;53.400;7.608;2022-08-19T02:23:55;101312.03;;;12.76;77.00
73267;BME280;61495;53.400;7.608;2022-08-19T02:26:21;101264.69;;;12.42;77.77
73267;BME280;61495;53.400;7.608;2022-08-19T02:28:47;101290.13;;;12.53;77.10
73267;BME280;61495;53.400;7.608;2022-08-19T02:31:18;101270.50;;;12.39;77.61
73267;BME280;61495;53.400;7.608;2022-08-19T02:33:46;101339.75;;;12.76;77.23
73267;BME280;61495;53.400;7.608;2022-08-19T02:36:16;101282.06;;;12.46;77.12
73267;BME280;61495;53.400;7.608;2022-08-19T02:38:45;101300.03;;;12.65;77.46
73267;BME280;61495;53.400;7.608;2022-08-19T02:41:17;101325.06;;;12.72;78.23
73267;BME280;61495;53.400;7.608;2022-08-19T02:43:43;101257.69;;;12.35;77.75
73267;BME280;61495;53.400;7.608;2022-08-19T02:46:31;101321.34;;;12.73;77.68
73267;BME280;61495;53.400;7.608;2022-08-19T02:49:05;101280.41;;;12.39;77.54
73267;BME280;61495;53.400;7.608;2022-08-19T02:51:39;101251.91;;;12.31;77.50
73267;BME280;61495;53.400;7.608;2022-08-19T02:54:11;101295.28;;;12.48;78.10
73267;BME280;61495;53.400;7.608;2022-08-19T02:56:38;101320.50;;;12.66;77.83
73267;BME280;61495;53.400;7.608;2022-08-19T02:59:05;101289.09;;;12.47;77.68
73267;BME280;61495;53.400;7.608;2022-08-19T03:01:36;101295.50;;;12.53;77.37
73267;BME280;61495;53.400;7.608;2022-08-19T03:04:04;101304.78;;;12.63;78.06
73267;BME280;61495;53.400;7.608;2022-08-19T03:06:42;101285.38;;;12.48;78.46
73267;BME280;61495;53.400;7.608;2022-08-19T03:09:08;101247.59;;;12.17;78.64
73267;BME280;61495;53.400;7.608;2022-08-19T03:11:33;101304.38;;;12.60;78.42
73267;BME280;61495;53.400;7.608;2022-08-19T03:13:59;101235.38;;;12.14;78.01
73267;BME280;61495;53.400;7.608;2022-08-19T03:16:27;101299.84;;;12.60;77.92
73267;BME280;61495;53.400;7.608;2022-08-19T03:18:56;101246.53;;;12.18;77.96
73267;BME280;61495;53.400;7.608;2022-08-19T03:21:30;101313.09;;;12.55;78.23
73267;BME280;61495;53.400;7.608;2022-08-19T03:24:06;101292.00;;;12.52;78.28
73267;BME280;61495;53.400;7.608;2022-08-19T03:26:32;101225.88;;;12.12;78.14
73267;BME280;61495;53.400;7.608;2022-08-19T03:29:02;101240.13;;;12.12;78.17
73267;BME280;61495;53.400;7.608;2022-08-19T03:31:28;101297.38;;;12.46;78.43
73267;BME280;61495;53.400;7.608;2022-08-19T03:33:56;101231.47;;;12.04;78.13
73267;BME280;61495;53.400;7.608;2022-08-19T03:36:26;101334.97;;;12.65;78.59
73267;BME280;61495;53.400;7.608;2022-08-19T03:38:57;101249.44;;;12.10;78.53
73267;BME280;61495;53.400;7.608;2022-08-19T03:41:31;101244.88;;;12.10;78.52
73267;BME280;61495;53.400;7.608;2022-08-19T03:43:58;101292.81;;;12.46;79.41
73267;BME280;61495;53.400;7.608;2022-08-19T03:46:27;101299.03;;;12.47;78.70
73267;BME280;61495;53.400;7.608;2022-08-19T03:48:55;101306.88;;;12.48;79.34
73267;BME280;61495;53.400;7.608;2022-08-19T03:51:31;101269.28;;;12.29;79.84
73267;BME280;61495;53.400;7.608;2022-08-19T03:54:21;101283.72;;;12.34;80.87
73267;BME280;61495;53.400;7.608;2022-08-19T03:57:12;101251.28;;;12.09;80.55
73267;BME280;61495;53.400;7.608;2022-08-19T03:59:38;101312.25;;;12.48;80.51
73267;BME280;61495;53.400;7.608;2022-08-19T04:02:08;101310.41;;;12.55;80.85
73267;BME280;61495;53.400;7.608;2022-08-19T04:04:34;101283.72;;;12.34;80.58
73267;BME280;61495;53.400;7.608;2022-08-19T04:07:00;101310.16;;;12.57;81.04
73267;BME280;61495;53.400;7.608;2022-08-19T04:09:26;101240.34;;;12.11;80.68
73267;BME280;61495;53.400;7.608;2022-08-19T04:11:53;101313.69;;;12.57;79.86
73267;BME280;61495;53.400;7.608;2022-08-19T04:14:22;101257.69;;;12.15;79.88
73267;BME280;61495;53.400;7.608;2022-08-19T04:16:50;101366.00;;;12.74;80.08
73267;BME280;61495;53.400;7.608;2022-08-19T04:19:17;101272.16;;;12.14;80.48
73267;BME280;61495;53.400;7.608;2022-08-19T04:21:45;101247.75;;;12.09;81.31
73267;BME280;61495;53.400;7.608;2022-08-19T04:24:11;101249.66;;;12.08;80.16
73267;BME280;61495;53.400;7.608;2022-08-19T04:26:39;101245.50;;;12.06;79.78
73267;BME280;61495;53.400;7.608;2022-08-19T04:29:18;101281.25;;;12.26;79.92
73267;BME280;61495;53.400;7.608;2022-08-19T04:31:45;101270.50;;;12.06;79.21
73267;BME280;61495;53.400;7.608;2022-08-19T04:34:14;101233.31;;;11.90;79.00
73267;BME280;61495;53.400;7.608;2022-08-19T04:36:42;101300.47;;;12.36;78.92
73267;BME280;61495;53.400;7.608;2022-08-19T04:39:15;101298.19;;;12.33;79.18
73267;BME280;61495;53.400;7.608;2022-08-19T04:41:41;101257.69;;;12.02;79.28
73267;BME280;61495;53.400;7.608;2022-08-19T04:44:26;101247.34;;;11.92;79.48
73267;BME280;61495;53.400;7.608;2022-08-19T04:46:51;101268.22;;;12.03;79.74
73267;BME280;61495;53.400;7.608;2022-08-19T04:49:19;101313.91;;;12.36;80.56
73267;BME280;61495;53.400;7.608;2022-08-19T04:51:46;101301.28;;;12.30;81.64
73267;BME280;61495;53.400;7.608;2022-08-19T04:54:18;101297.78;;;12.36;81.18
73267;BME280;61495;53.400;7.608;2022-08-19T04:56:52;101234.56;;;12.01;80.97
73267;BME280;61495;53.400;7.608;2022-08-19T04:59:21;101211.41;;;11.87;80.10
73267;BME280;61495;53.400;7.608;2022-08-19T05:01:47;101226.50;;;12.01;80.11
73267;BME280;61495;53.400;7.608;2022-08-19T05:04:17;101217.22;;;11.90;79.39
73267;BME280;61495;53.400;7.608;2022-08-19T05:06:46;101183.31;;;11.76;79.53
73267;BME280;61495;53.400;7.608;2022-08-19T05:09:19;101222.97;;;11.94;79.54
73267;BME280;61495;53.400;7.608;2022-08-19T05:11:49;101220.50;;;11.92;80.36
73267;BME280;61495;53.400;7.608;2022-08-19T05:14:18;101298.59;;;12.30;80.15
73267;BME280;61495;53.400;7.608;2022-08-19T05:16:46;101252.31;;;11.95;80.60
73267;BME280;61495;53.400;7.608;2022-08-19T05:19:12;101256.03;;;12.07;82.43
73267;BME280;61495;53.400;7.608;2022-08-19T05:21:59;101281.03;;;12.21;81.77
73267;BME280;61495;53.400;7.608;2022-08-19T05:24:43;101335.38;;;12.62;82.41
73267;BME280;61495;53.400;7.608;2022-08-19T05:27:12;101299.03;;;12.40;81.04
73267;BME280;61495;53.400;7.608;2022-08-19T05:29:37;101329.19;;;12.75;80.94
73267;BME280;61495;53.400;7.608;2022-08-19T05:32:04;101331.88;;;12.81;80.47
73267;BME280;61495;53.400;7.608;2022-08-19T05:34:36;101289.91;;;12.54;80.56
73267;BME280;61495;53.400;7.608;2022-08-19T05:37:03;101301.50;;;12.61;81.17
73267;BME280;61495;53.400;7.608;2022-08-19T05:39:31;101306.03;;;12.67;80.65
73267;BME280;61495;53.400;7.608;2022-08-19T05:41:59;101232.91;;;12.26;80.74
73267;BME280;61495;53.400;7.608;2022-08-19T05:44:30;101223.78;;;12.34;80.54
73267;BME280;61495;53.400;7.608;2022-08-19T05:46:58;101285.31;;;12.74;80.83
73267;BME280;61495;53.400;7.608;2022-08-19T05:49:27;101237.41;;;12.45;81.03
73267;BME280;61495;53.400;7.608;2022-08-19T05:51:53;101239.06;;;12.46;81.73
73267;BME280;61495;53.400;7.608;2022-08-19T05:54:21;101278.50;;;12.78;80.89
73267;BME280;61495;53.400;7.608;2022-08-19T05:56:49;101279.75;;;12.82;81.86
73267;BME280;61495;53.400;7.608;2022-08-19T05:59:17;101252.63;;;12.77;82.60
73267;BME280;61495;53.400;7.608;2022-08-19T06:01:44;101346.44;;;13.45;82.57
73267;BME280;61495;53.400;7.608;2022-08-19T06:04:13;101320.16;;;13.33;81.07
73267;BME280;61495;53.400;7.608;2022-08-19T06:06:41;101260.00;;;13.15;82.77
73267;BME280;61495;53.400;7.608;2022-08-19T06:09:09;101257.88;;;13.30;82.00
73267;BME280;61495;53.400;7.608;2022-08-19T06:11:39;101331.84;;;13.97;82.09
73267;BME280;61495;53.400;7.608;2022-08-19T06:14:08;101272.41;;;13.91;83.80
73267;BME280;61495;53.400;7.608;2022-08-19T06:16:40;101285.31;;;14.14;82.01
73267;BME280;61495;53.400;7.608;2022-08-19T06:19:12;101336.78;;;14.62;83.40
73267;BME280;61495;53.400;7.608;2022-08-19T06:21:40;101271.28;;;14.37;81.65
73267;BME280;61495;53.400;7.608;2022-08-19T06:24:09;101311.50;;;14.81;82.53
73267;BME280;61495;53.400;7.608;2022-08-19T06:26:40;101367.16;;;15.19;82.68
73267;BME280;61495;53.400;7.608;2022-08-19T06:29:13;101329.66;;;15.11;82.44
73267;BME280;61495;53.400;7.608;2022-08-19T06:31:45;101309.69;;;15.12;82.32
73267;BME280;61495;53.400;7.608;2022-08-19T06:34:12;101310.00;;;15.22;81.91
73267;BME280;61495;53.400;7.608;2022-08-19T06:36:43;101269.75;;;15.20;80.51
73267;BME280;61495;53.400;7.608;2022-08-19T06:39:16;101331.16;;;15.61;81.65
73267;BME280;61495;53.400;7.608;2022-08-19T06:41:44;101306.41;;;15.64;81.93
73267;BME280;61495;53.400;7.608;2022-08-19T06:44:30;101256.78;;;15.47;81.84
73267;BME280;61495;53.400;7.608;2022-08-19T06:47:04;101357.09;;;16.22;80.88
73267;BME280;61495;53.400;7.608;2022-08-19T06:49:37;101258.75;;;15.81;80.55
73267;BME280;61495;53.400;7.608;2022-08-19T06:52:19;101319.75;;;16.30;81.83
73267;BME280;61495;53.400;7.608;2022-08-19T06:54:56;101256.00;;;16.11;81.32
73267;BME280;61495;53.400;7.608;2022-08-19T06:57:26;101311.25;;;16.68;79.64
73267;BME280;61495;53.400;7.608;2022-08-19T06:59:55;101258.16;;;16.44;79.51
73267;BME280;61495;53.400;7.608;2022-08-19T07:02:24;101254.53;;;16.73;79.72
73267;BME280;61495;53.400;7.608;2022-08-19T07:04:56;101279.75;;;17.13;79.75
73267;BME280;61495;53.400;7.608;2022-08-19T07:07:37;101304.88;;;17.49;80.99
73267;BME280;61495;53.400;7.608;2022-08-19T07:10:12;101288.59;;;17.60;79.77
73267;BME280;61495;53.400;7.608;2022-08-19T07:12:37;101260.19;;;17.63;79.26
73267;BME280;61495;53.400;7.608;2022-08-19T07:15:13;101289.91;;;18.03;77.93
73267;BME280;61495;53.400;7.608;2022-08-19T07:17:47;101302.09;;;18.33;78.14
73267;BME280;61495;53.400;7.608;2022-08-19T07:20:19;101261.31;;;18.28;78.54
73267;BME280;61495;53.400;7.608;2022-08-19T07:22:50;101340.03;;;18.78;77.08
73267;BME280;61495;53.400;7.608;2022-08-19T07:25:16;101271.81;;;18.75;76.07
73267;BME280;61495;53.400;7.608;2022-08-19T07:27:58;101268.25;;;18.91;76.62
73267;BME280;61495;53.400;7.608;2022-08-19T07:30:29;101278.28;;;19.12;76.44
73267;BME280;61495;53.400;7.608;2022-08-19T07:32:55;101317.44;;;19.55;76.36
73267;BME280;61495;53.400;7.608;2022-08-19T07:35:21;101310.41;;;19.59;75.65
73267;BME280;61495;53.400;7.608;2022-08-19T07:37:55;101252.00;;;19.39;75.25
73267;BME280;61495;53.400;7.608;2022-08-19T07:40:20;101360.50;;;20.16;74.40
73267;BME280;61495;53.400;7.608;2022-08-19T07:45:44;101280.84;;;19.89;73.25
73267;BME280;61495;53.400;7.608;2022-08-19T07:48:18;101343.91;;;20.39;74.20
73267;BME280;61495;53.400;7.608;2022-08-19T07:50:54;101296.78;;;20.34;72.57
73267;BME280;61495;53.400;7.608;2022-08-19T07:53:29;101328.41;;;20.82;73.70
73267;BME280;61495;53.400;7.608;2022-08-19T07:56:01;101322.72;;;20.83;72.11
73267;BME280;61495;53.400;7.608;2022-08-19T07:58:37;101346.63;;;21.13;72.05
73267;BME280;61495;53.400;7.608;2022-08-19T08:01:18;101304.50;;;20.94;70.99
73267;BME280;61495;53.400;7.608;2022-08-19T08:03:58;101354.44;;;21.46;71.84
73267;BME280;61495;53.400;7.608;2022-08-19T08:06:52;101304.22;;;21.37;70.16
73267;BME280;61495;53.400;7.608;2022-08-19T08:09:43;101323.19;;;21.79;70.36
73267;BME280;61495;53.400;7.608;2022-08-19T08:12:13;101391.81;;;22.38;71.26
73267;BME280;61495;53.400;7.608;2022-08-19T08:14:51;101304.41;;;21.98;69.46
73267;BME280;61495;53.400;7.608;2022-08-19T08:17:30;101395.97;;;22.76;69.31
73267;BME280;61495;53.400;7.608;2022-08-19T08:20:03;101308.78;;;22.39;69.11
73267;BME280;61495;53.400;7.608;2022-08-19T08:22:31;101314.81;;;22.56;67.47
73267;BME280;61495;53.400;7.608;2022-08-19T08:25:19;101373.25;;;23.06;67.44
73267;BME280;61495;53.400;7.608;2022-08-19T08:27:51;101327.91;;;22.85;65.68
73267;BME280;61495;53.400;7.608;2022-08-19T08:30:22;101341.50;;;23.05;65.80
73267;BME280;61495;53.400;7.608;2022-08-19T08:32:55;101366.06;;;23.30;65.59
73267;BME280;61495;53.400;7.608;2022-08-19T08:35:22;101336.47;;;23.37;66.11
73267;BME280;61495;53.400;7.608;2022-08-19T08:37:57;101358.84;;;23.64;64.42
73267;BME280;61495;53.400;7.608;2022-08-19T08:40:53;101346.25;;;23.68;64.25
73267;BME280;61495;53.400;7.608;2022-08-19T08:43:37;101417.56;;;24.41;66.26
73267;BME280;61495;53.400;7.608;2022-08-19T08:49:29;101376.91;;;24.19;62.89
73267;BME280;61495;53.400;7.608;2022-08-19T08:51:44;101368.38;;;24.26;62.48
73267;BME280;61495;53.400;7.608;2022-08-19T08:54:19;101377.25;;;24.47;61.65
73267;BME280;61495;53.400;7.608;2022-08-19T08:56:51;101353.06;;;24.54;62.03
73267;BME280;61495;53.400;7.608;2022-08-19T08:59:39;101376.72;;;24.78;61.46
73267;BME280;61495;53.400;7.608;2022-08-19T09:02:20;101365.09;;;24.92;60.20
73267;BME280;61495;53.400;7.608;2022-08-19T09:05:03;101437.97;;;25.55;61.28
73267;BME280;61495;53.400;7.608;2022-08-19T09:11:38;101393.56;;;25.48;59.10
73267;BME280;61495;53.400;7.608;2022-08-19T09:14:45;101437.25;;;25.92;58.92
73267;BME280;61495;53.400;7.608;2022-08-19T09:17:31;101401.81;;;25.90;59.25
73267;BME280;61495;53.400;7.608;2022-08-19T09:20:25;101396.63;;;26.08;59.17
73267;BME280;61495;53.400;7.608;2022-08-19T09:23:01;101392.09;;;26.22;59.69
73267;BME280;61495;53.400;7.608;2022-08-19T09:25:34;101377.22;;;26.23;57.83
73267;BME280;61495;53.400;7.608;2022-08-19T09:28:08;101372.59;;;26.37;58.56
73267;BME280;61495;53.400;7.608;2022-08-19T09:30:57;101375.03;;;26.57;57.58
73267;BME280;61495;53.400;7.608;2022-08-19T09:33:51;101407.00;;;26.85;56.01
73267;BME280;61495;53.400;7.608;2022-08-19T09:36:34;101382.72;;;26.74;55.47
73267;BME280;61495;53.400;7.608;2022-08-19T09:39:15;101372.41;;;26.84;56.52
73267;BME280;61495;53.400;7.608;2022-08-19T09:48:43;101388.25;;;27.47;54.33
73267;BME280;61495;53.400;7.608;2022-08-19T09:55:10;101347.34;;;27.68;54.14
73267;BME280;61495;53.400;7.608;2022-08-19T09:58:23;101426.59;;;28.11;53.46
73267;BME280;61495;53.400;7.608;2022-08-19T10:01:09;101368.06;;;27.79;53.52
73267;BME280;61495;53.400;7.608;2022-08-19T10:03:36;101384.25;;;27.94;53.50
73267;BME280;61495;53.400;7.608;2022-08-19T10:06:08;101433.00;;;28.21;52.60
73267;BME280;61495;53.400;7.608;2022-08-19T10:08:45;101367.84;;;27.75;52.47
73267;BME280;61495;53.400;7.608;2022-08-19T10:11:34;101428.47;;;28.25;51.59
73267;BME280;61495;53.400;7.608;2022-08-19T10:14:49;101393.22;;;27.99;51.40
73267;BME280;61495;53.400;7.608;2022-08-19T10:21:02;101349.75;;;27.96;52.21
73267;BME280;61495;53.400;7.608;2022-08-19T10:23:46;101380.00;;;28.24;52.29
73267;BME280;61495;53.400;7.608;2022-08-19T10:26:59;101407.50;;;28.37;51.13
73267;BME280;61495;53.400;7.608;2022-08-19T10:29:35;101357.69;;;28.11;51.72
73267;BME280;61495;53.400;7.608;2022-08-19T10:32:30;101372.09;;;28.31;52.12
73267;BME280;61495;53.400;7.608;2022-08-19T10:41:42;101350.78;;;28.45;50.42
73267;BME280;61495;53.400;7.608;2022-08-19T10:44:21;101374.53;;;28.68;51.22
73267;BME280;61495;53.400;7.608;2022-08-19T10:47:03;101378.19;;;28.63;49.85
73267;BME280;61495;53.400;7.608;2022-08-19T10:49:36;101354.69;;;28.66;50.73
73267;BME280;61495;53.400;7.608;2022-08-19T10:52:25;101412.53;;;29.24;51.16
73267;BME280;61495;53.400;7.608;2022-08-19T10:59:13;101369.59;;;29.18;51.03
73267;BME280;61495;53.400;7.608;2022-08-19T11:01:50;101361.59;;;29.16;49.81
73267;BME280;61495;53.400;7.608;2022-08-19T11:04:39;101374.09;;;29.45;49.65
73267;BME280;61495;53.400;7.608;2022-08-19T11:07:57;101332.66;;;29.36;50.25
73267;BME280;61495;53.400;7.608;2022-08-19T11:10:57;101325.66;;;29.39;50.96
73267;BME280;61495;53.400;7.608;2022-08-19T11:13:43;101370.47;;;29.84;50.66
73267;BME280;61495;53.400;7.608;2022-08-19T11:16:42;101369.69;;;30.00;50.89
73267;BME280;61495;53.400;7.608;2022-08-19T11:19:16;101361.22;;;30.05;50.27
73267;BME280;61495;53.400;7.608;2022-08-19T11:22:13;101391.03;;;30.43;49.34
73267;BME280;61495;53.400;7.608;2022-08-19T11:25:12;101403.19;;;30.59;49.16
73267;BME280;61495;53.400;7.608;2022-08-19T11:27:48;101353.09;;;30.52;51.48
73267;BME280;61495;53.400;7.608;2022-08-19T11:30:28;101364.31;;;30.64;49.84
73267;BME280;61495;53.400;7.608;2022-08-19T11:33:19;101340.75;;;30.41;48.94
73267;BME280;61495;53.400;7.608;2022-08-19T11:35:56;101323.50;;;30.44;49.36
73267;BME280;61495;53.400;7.608;2022-08-19T11:39:06;101371.59;;;30.94;49.41
73267;BME280;61495;53.400;7.608;2022-08-19T11:42:22;101365.00;;;31.07;48.72
73267;BME280;61495;53.400;7.608;2022-08-19T11:45:15;101334.81;;;31.23;49.34
73267;BME280;61495;53.400;7.608;2022-08-19T11:47:51;101381.28;;;31.55;50.40
73267;BME280;61495;53.400;7.608;2022-08-19T11:50:41;101327.75;;;31.34;47.83
73267;BME280;61495;53.400;7.608;2022-08-19T11:53:19;101356.56;;;31.71;48.68
73267;BME280;61495;53.400;7.608;2022-08-19T11:56:04;101363.13;;;31.87;49.08
73267;BME280;61495;53.400;7.608;2022-08-19T11:58:48;101354.13;;;31.90;48.45
73267;BME280;61495;53.400;7.608;2022-08-19T12:01:38;101329.59;;;31.80;48.65
73267;BME280;61495;53.400;7.608;2022-08-19T12:04:33;101389.00;;;32.20;47.68
73267;BME280;61495;53.400;7.608;2022-08-19T12:07:28;101347.13;;;32.13;47.13
73267;BME280;61495;53.400;7.608;2022-08-19T12:09:56;101368.22;;;32.26;47.43
73267;BME280;61495;53.400;7.608;2022-08-19T12:12:40;101325.19;;;32.20;47.15
73267;BME280;61495;53.400;7.608;2022-08-19T12:15:26;101321.53;;;32.28;46.88
73267;BME280;61495;53.400;7.608;2022-08-19T12:18:01;101341.25;;;32.47;48.54
73267;BME280;61495;53.400;7.608;2022-08-19T12:20:34;101364.13;;;32.65;47.72
73267;BME280;61495;53.400;7.608;2022-08-19T12:23:00;101322.25;;;32.37;46.48
73267;BME280;61495;53.400;7.608;2022-08-19T12:25:42;101366.00;;;32.73;46.57
73267;BME280;61495;53.400;7.608;2022-08-19T12:29:01;101383.28;;;32.91;47.91
73267;BME280;61495;53.400;7.608;2022-08-19T12:31:56;101331.72;;;32.57;47.68
73267;BME280;61495;53.400;7.608;2022-08-19T12:35:08;101351.31;;;32.85;45.44
73267;BME280;61495;53.400;7.608;2022-08-19T12:40:52;101379.38;;;33.04;45.99
73267;BME280;61495;53.400;7.608;2022-08-19T12:43:29;101334.41;;;32.66;46.95
73267;BME280;61495;53.400;7.608;2022-08-19T12:49:05;101346.34;;;32.90;46.48
73267;BME280;61495;53.400;7.608;2022-08-19T12:51:31;101339.75;;;32.71;43.93
73267;BME280;61495;53.400;7.608;2022-08-19T12:53:57;101334.59;;;32.61;44.31
73267;BME280;61495;53.400;7.608;2022-08-19T12:56:23;101325.84;;;32.38;42.03
73267;BME280;61495;53.400;7.608;2022-08-19T12:58:49;101350.63;;;32.22;42.27
73267;BME280;61495;53.400;7.608;2022-08-19T13:01:16;101350.28;;;32.44;45.04
73267;BME280;61495;53.400;7.608;2022-08-19T13:03:44;101302.19;;;32.20;44.69
73267;BME280;61495;53.400;7.608;2022-08-19T13:06:33;101330.94;;;32.69;44.92
73267;BME280;61495;53.400;7.608;2022-08-19T13:12:01;101313.81;;;32.79;44.78
73267;BME280;61495;53.400;7.608;2022-08-19T13:14:39;101328.88;;;32.78;45.12
73267;BME280;61495;53.400;7.608;2022-08-19T13:17:23;101323.81;;;32.92;44.48
73267;BME280;61495;53.400;7.608;2022-08-19T13:20:02;101298.66;;;32.76;44.96
73267;BME280;61495;53.400;7.608;2022-08-19T13:22:36;101288.81;;;32.67;40.30
73267;BME280;61495;53.400;7.608;2022-08-19T13:25:06;101350.47;;;33.29;42.68
73267;BME280;61495;53.400;7.608;2022-08-19T13:27:50;101342.13;;;33.53;43.91
73267;BME280;61495;53.400;7.608;2022-08-19T13:30:31;101359.50;;;33.50;43.87
73267;BME280;61495;53.400;7.608;2022-08-19T13:33:17;101275.25;;;33.10;44.75
73267;BME280;61495;53.400;7.608;2022-08-19T13:36:04;101288.44;;;33.25;43.27
73267;BME280;61495;53.400;7.608;2022-08-19T13:41:50;101333.31;;;33.76;43.24
73267;BME280;61495;53.400;7.608;2022-08-19T13:44:21;101261.34;;;33.22;40.79
73267;BME280;61495;53.400;7.608;2022-08-19T13:47:34;101290.84;;;33.15;37.54
73267;BME280;61495;53.400;7.608;2022-08-19T13:50:15;101299.28;;;33.42;42.23
73267;BME280;61495;53.400;7.608;2022-08-19T13:52:49;101255.91;;;33.26;41.41
73267;BME280;61495;53.400;7.608;2022-08-19T13:55:27;101249.88;;;33.12;40.61
73267;BME280;61495;53.400;7.608;2022-08-19T13:57:59;101255.91;;;33.26;42.29
73267;BME280;61495;53.400;7.608;2022-08-19T14:00:36;101287.34;;;33.54;44.01
73267;BME280;61495;53.400;7.608;2022-08-19T14:03:15;101283.06;;;33.32;40.63
73267;BME280;61495;53.400;7.608;2022-08-19T14:05:43;101284.47;;;33.26;41.32
73267;BME280;61495;53.400;7.608;2022-08-19T14:08:25;101258.00;;;33.17;43.77
73267;BME280;61495;53.400;7.608;2022-08-19T14:11:34;101255.78;;;33.10;41.44
73267;BME280;61495;53.400;7.608;2022-08-19T14:14:52;101259.72;;;33.21;42.16
73267;BME280;61495;53.400;7.608;2022-08-19T14:20:30;101252.06;;;33.18;42.64
73267;BME280;61495;53.400;7.608;2022-08-19T14:23:16;101261.81;;;33.12;41.73